メインページ
METAR-TAF:

METAR-TAF

空港 :

ケリマネ, モザンビーク

緯度: 17-53S, 経度: 036-53E, 海抜: 6m

現時点の気象観測

当レポートは59分前の15:00(UTC)に作成
気温 25°C
湿度 79%
気圧 1018 hPa
視程10km以上
高度1800ftの千切れ雲あり
高度9000ftの雲は散在している

METAR: FQQL 181500Z /////KT 9999 BKN018 SCT090 25/21 Q1018

時間: 17:59 (15:59 UTC)

予報

当レポートは5時間59分前の10:00(UTC)に作成
予報は18日の 12時(UTC)から 19日の 12時(UTC)まで有効
南/南東の風 7kt
視程10km以上
高度1800ftの千切れ雲あり
高度9000ftの雲は散在している
確率 40% :
18日の 12時(UTC)から 18日の 17時(UTC)まで一時的に
視程: 4000m
高度1200ftの雲は散在している
高度1800ftの千切れ雲あり
雨, 霧雨
18日の 19時(UTC)から 18日の 21時(UTC)まで徐々に
西/南西の風 7kt

TAF: FQQL 181000Z 1812/1912 16007KT 9999 BKN018 SCT090 TX26/1813Z TN16/1902Z PROB40 TEMPO 1812/1817 4000 RADZ SCT012 BKN018 BECMG 1819/1821 24007KT

4,000以上の空港の気象観測と天気予報(METAR報とTAF報)

利用可能な観測所は地図上に黄色い丸と赤い丸で示す。

丸の上にカーソルを重ねると観測所名を参照できる。

次にクリックすると気象観測と天気予報を参照できる。

マップの切り替え:黒色「×」印の緑ボタンをクリックして拡大、「-」印の緑ボタンをクリックして縮小、緑色の三角印をクリックして隣りの地図に切り替え


METAR-TAF: